Time;durP1;ratioP1;P1;durP2;ratioP2;P2;SDS_P1;SDS_P2;PMS_P1;PMS_P2;Temp;Humidity;BMP_temperature;BMP_pressure;BME280_temperature;BME280_humidity;BME280_pressure;Samples;Min_cycle;Max_cycle;Signal;HPM_P1;HPM_P2
2022/12/30 00:00:24;;;;;;;;;;;;;;;;;;4909064;29;19914;-66
2022/12/30 00:02:50;;;;;;;;;;;;;;;;;;4904511;29;19915;-67
2022/12/30 00:05:16;;;;;;;;;;;;;;;;;;4907521;29;19915;-66
2022/12/30 00:07:42;;;;;;;;;;;;;;;;;;4907325;29;20191;-67
2022/12/30 00:10:08;;;;;;;;;;;;;;;;;;4907601;29;20808;-67
2022/12/30 00:34:32;;;;;;;;;;;;;;;;;;4907740;29;20306;-66
2022/12/30 00:36:58;;;;;;;;;;;;;;;;;;4917869;28;19919;-66
2022/12/30 00:39:24;;;;;;;;;;;;;;;;;;4907806;29;20403;-67
2022/12/30 00:44:35;;;;;;;;;;;;;;;;;;4906575;29;19929;-66
2022/12/30 00:47:01;;;;;;;;;;;;;;;;;;4907247;28;20156;-66
2022/12/30 00:57:41;;;;;;;;;;;;;;;;;;4906378;29;20520;-66
2022/12/30 01:00:07;;;;;;;;;;;;;;;;;;4905558;29;19933;-66
2022/12/30 01:02:33;;;;;;;;;;;;;;;;;;4906808;29;20815;-67
2022/12/30 01:04:59;;;;;;;;;;;;;;;;;;4904352;28;19997;-68
2022/12/30 01:07:25;;;;;;;;;;;;;;;;;;4923106;28;20202;-67
2022/12/30 01:09:51;;;;;;;;;;;;;;;;;;4902105;29;19915;-66
2022/12/30 01:12:17;;;;;;;;;;;;;;;;;;4906998;29;19957;-66
2022/12/30 01:14:43;;;;;;;;;;;;;;;;;;4907814;29;19914;-66
2022/12/30 01:17:09;;;;;;;;;;;;;;;;;;4902974;29;19915;-66
2022/12/30 01:19:35;;;;;;;;;;;;;;;;;;4924551;28;19977;-66
2022/12/30 01:22:01;;;;;;;;;;;;;;;;;;4919388;28;20464;-66
2022/12/30 01:24:26;;;;;;;;;;;;;;;;;;4905855;29;19915;-66
2022/12/30 01:26:52;;;;;;;;;;;;;;;;;;4916469;28;19919;-67
2022/12/30 01:29:18;;;;;;;;;;;;;;;;;;4908322;29;19925;-67
2022/12/30 01:31:44;;;;;;;;;;;;;;;;;;4921640;28;19919;-67
2022/12/30 01:34:10;;;;;;;;;;;;;;;;;;4904913;28;19925;-67
2022/12/30 01:36:36;;;;;;;;;;;;;;;;;;4903081;29;20094;-67
2022/12/30 01:39:02;;;;;;;;;;;;;;;;;;4901534;29;20593;-67
2022/12/30 01:41:28;;;;;;;;;;;;;;;;;;4920418;28;19950;-67
2022/12/30 01:43:54;;;;;;;;;;;;;;;;;;4905751;29;19918;-67
2022/12/30 01:46:20;;;;;;;;;;;;;;;;;;4908192;29;20357;-67
2022/12/30 01:48:46;;;;;;;;;;;;;;;;;;4907266;29;19915;-67
2022/12/30 01:51:12;;;;;;;;;;;;;;;;;;4916439;28;20422;-67
2022/12/30 01:53:38;;;;;;;;;;;;;;;;;;4919728;28;19922;-67
2022/12/30 01:56:04;;;;;;;;;;;;;;;;;;4901989;29;20402;-67
2022/12/30 01:58:30;;;;;;;;;;;;;;;;;;4922258;28;20313;-67
2022/12/30 02:00:56;;;;;;;;;;;;;;;;;;4917981;28;19981;-67
2022/12/30 02:03:22;;;;;;;;;;;;;;;;;;4923556;28;19914;-67
2022/12/30 02:05:48;;;;;;;;;;;;;;;;;;4899754;29;19915;-66
2022/12/30 02:08:15;;;;;;;;;;;;;;;;;;4907257;28;20390;-67
2022/12/30 02:10:41;;;;;;;;;;;;;;;;;;4907701;29;19953;-67
2022/12/30 02:13:06;;;;;;;;;;;;;;;;;;4903095;29;20006;-66
2022/12/30 02:15:32;;;;;;;;;;;;;;;;;;4907784;29;19914;-66
2022/12/30 02:17:58;;;;;;;;;;;;;;;;;;4904532;29;20016;-66
2022/12/30 02:20:24;;;;;;;;;;;;;;;;;;4905598;29;20069;-66
2022/12/30 02:22:50;;;;;;;;;;;;;;;;;;4905053;29;20523;-66
2022/12/30 02:25:16;;;;;;;;;;;;;;;;;;4921022;28;19918;-66
2022/12/30 02:27:42;;;;;;;;;;;;;;;;;;4907725;29;19923;-66
2022/12/30 02:30:08;;;;;;;;;;;;;;;;;;4917776;28;20756;-66
2022/12/30 02:32:34;;;;;;;;;;;;;;;;;;4920415;28;19985;-65
2022/12/30 02:35:00;;;;;;;;;;;;;;;;;;4913550;28;19966;-65
2022/12/30 02:37:26;;;;;;;;;;;;;;;;;;4910061;29;19915;-65
2022/12/30 02:39:52;;;;;;;;;;;;;;;;;;4905898;29;19926;-66
2022/12/30 02:45:03;;;;;;;;;;;;;;;;;;4903720;29;20395;-66
2022/12/30 02:47:28;;;;;;;;;;;;;;;;;;4904997;29;19919;-66
2022/12/30 02:52:39;;;;;;;;;;;;;;;;;;4905264;29;19922;-66
2022/12/30 02:55:05;;;;;;;;;;;;;;;;;;4904810;29;19915;-66
2022/12/30 02:57:31;;;;;;;;;;;;;;;;;;4907858;29;19914;-66
2022/12/30 03:05:26;;;;;;;;;;;;;;;;;;4904449;29;20778;-66
2022/12/30 03:07:52;;;;;;;;;;;;;;;;;;4903170;29;19923;-66
2022/12/30 03:13:03;;;;;;;;;;;;;;;;;;4904000;29;19921;-66
2022/12/30 03:15:29;;;;;;;;;;;;;;;;;;4907341;29;20460;-65
2022/12/30 03:17:55;;;;;;;;;;;;;;;;;;4903138;29;19921;-65
2022/12/30 03:20:21;;;;;;;;;;;;;;;;;;4923606;28;19914;-65
2022/12/30 03:28:17;;;;;;;;;;;;;;;;;;4908397;29;20539;-66
2022/12/30 03:30:43;;;;;;;;;;;;;;;;;;4920767;28;19923;-67
2022/12/30 03:33:09;;;;;;;;;;;;;;;;;;4905124;29;19977;-66
2022/12/30 03:35:35;;;;;;;;;;;;;;;;;;4921783;28;20238;-66
2022/12/30 03:38:01;;;;;;;;;;;;;;;;;;4906616;29;19914;-65
2022/12/30 03:40:27;;;;;;;;;;;;;;;;;;4924843;28;19922;-65
2022/12/30 03:42:53;;;;;;;;;;;;;;;;;;4904583;29;20005;-65
2022/12/30 03:45:18;;;;;;;;;;;;;;;;;;4909785;29;19989;-65
2022/12/30 03:47:45;;;;;;;;;;;;;;;;;;4910447;29;20322;-65
2022/12/30 03:50:10;;;;;;;;;;;;;;;;;;4906488;29;19922;-65
2022/12/30 03:52:36;;;;;;;;;;;;;;;;;;4909953;29;19914;-65
2022/12/30 03:55:02;;;;;;;;;;;;;;;;;;4906819;29;20021;-65
2022/12/30 03:57:28;;;;;;;;;;;;;;;;;;4910275;29;19914;-65
2022/12/30 03:59:54;;;;;;;;;;;;;;;;;;4917731;28;19923;-66
2022/12/30 04:02:20;;;;;;;;;;;;;;;;;;4908730;29;19958;-66
2022/12/30 04:04:46;;;;;;;;;;;;;;;;;;4911432;29;20342;-65
2022/12/30 04:07:12;;;;;;;;;;;;;;;;;;4909348;29;19915;-65
2022/12/30 04:09:38;;;;;;;;;;;;;;;;;;4911014;29;20365;-65
2022/12/30 04:12:04;;;;;;;;;;;;;;;;;;4921181;28;19953;-65
2022/12/30 04:14:30;;;;;;;;;;;;;;;;;;4907693;29;19922;-66
2022/12/30 04:16:56;;;;;;;;;;;;;;;;;;4906319;29;20395;-67
2022/12/30 04:19:22;;;;;;;;;;;;;;;;;;4910086;29;20365;-65
2022/12/30 04:21:48;;;;;;;;;;;;;;;;;;4922154;28;19926;-66
2022/12/30 04:24:14;;;;;;;;;;;;;;;;;;4924057;28;20352;-67
2022/12/30 04:26:40;;;;;;;;;;;;;;;;;;4921241;28;20021;-67
2022/12/30 04:29:06;;;;;;;;;;;;;;;;;;4904731;29;20428;-67
2022/12/30 04:31:32;;;;;;;;;;;;;;;;;;4910615;29;19961;-66
2022/12/30 04:33:58;;;;;;;;;;;;;;;;;;4905961;29;19922;-67
2022/12/30 04:36:24;;;;;;;;;;;;;;;;;;4908964;29;20280;-67
2022/12/30 04:38:50;;;;;;;;;;;;;;;;;;4906587;29;19914;-67
2022/12/30 04:41:19;;;;;;;;;;;;;;;;;;4910629;29;20409;-67
2022/12/30 04:43:46;;;;;;;;;;;;;;;;;;4907108;29;19915;-65
2022/12/30 04:46:12;;;;;;;;;;;;;;;;;;4923064;28;19969;-67
2022/12/30 04:48:38;;;;;;;;;;;;;;;;;;4923827;28;19915;-67
2022/12/30 04:51:04;;;;;;;;;;;;;;;;;;4906750;29;19961;-67
2022/12/30 04:53:30;;;;;;;;;;;;;;;;;;4907704;29;20393;-67
2022/12/30 04:55:56;;;;;;;;;;;;;;;;;;4905474;29;20475;-66
2022/12/30 04:58:22;;;;;;;;;;;;;;;;;;4907159;29;19922;-64
2022/12/30 05:00:48;;;;;;;;;;;;;;;;;;4916890;28;20670;-66
2022/12/30 05:03:14;;;;;;;;;;;;;;;;;;4925191;28;19994;-66
2022/12/30 05:05:40;;;;;;;;;;;;;;;;;;4908980;29;19919;-66
2022/12/30 05:08:06;;;;;;;;;;;;;;;;;;4904759;29;20204;-66
2022/12/30 05:10:32;;;;;;;;;;;;;;;;;;4907903;29;19926;-66
2022/12/30 05:12:58;;;;;;;;;;;;;;;;;;4905474;29;20720;-66
2022/12/30 05:15:24;;;;;;;;;;;;;;;;;;4923103;28;19914;-66
2022/12/30 05:17:50;;;;;;;;;;;;;;;;;;4919065;28;19921;-66
2022/12/30 05:20:16;;;;;;;;;;;;;;;;;;4907792;29;20396;-66
2022/12/30 05:22:42;;;;;;;;;;;;;;;;;;4906596;29;19961;-66
2022/12/30 05:27:52;;;;;;;;;;;;;;;;;;4905603;29;20387;-66
2022/12/30 05:30:18;;;;;;;;;;;;;;;;;;4907673;29;19923;-66
2022/12/30 05:32:44;;;;;;;;;;;;;;;;;;4907358;29;20296;-65
2022/12/30 05:35:10;;;;;;;;;;;;;;;;;;4915043;28;19918;-65
2022/12/30 05:37:36;;;;;;;;;;;;;;;;;;4908436;29;20468;-66
2022/12/30 05:40:02;;;;;;;;;;;;;;;;;;4902795;29;19915;-66
2022/12/30 05:42:28;;;;;;;;;;;;;;;;;;4908085;29;20503;-67
2022/12/30 05:44:54;;;;;;;;;;;;;;;;;;4904443;29;20392;-67
2022/12/30 05:47:20;;;;;;;;;;;;;;;;;;4908336;29;19915;-66
2022/12/30 05:49:47;;;;;;;;;;;;;;;;;;4907463;29;20568;-67
2022/12/30 05:52:14;;;;;;;;;;;;;;;;;;4920935;28;19922;-67
2022/12/30 05:54:40;;;;;;;;;;;;;;;;;;4908172;29;20345;-67
2022/12/30 05:57:06;;;;;;;;;;;;;;;;;;4904697;29;20391;-67
2022/12/30 05:59:32;;;;;;;;;;;;;;;;;;4908441;29;19926;-65
2022/12/30 06:01:58;;;;;;;;;;;;;;;;;;4903795;29;20037;-65
2022/12/30 06:04:24;;;;;;;;;;;;;;;;;;4906266;29;20376;-66
2022/12/30 06:06:50;;;;;;;;;;;;;;;;;;4902472;29;19985;-67
2022/12/30 06:09:16;;;;;;;;;;;;;;;;;;4906946;29;19914;-65
2022/12/30 06:11:42;;;;;;;;;;;;;;;;;;4907482;29;19979;-66
2022/12/30 06:14:08;;;;;;;;;;;;;;;;;;4903105;29;20708;-66
2022/12/30 06:16:34;;;;;;;;;;;;;;;;;;4907771;29;20372;-66
2022/12/30 06:19:00;;;;;;;;;;;;;;;;;;4902314;29;19914;-66
2022/12/30 06:21:26;;;;;;;;;;;;;;;;;;4921868;28;19930;-66
2022/12/30 06:23:52;;;;;;;;;;;;;;;;;;4902777;29;19915;-66
2022/12/30 06:26:18;;;;;;;;;;;;;;;;;;4906355;29;19915;-66
2022/12/30 06:28:44;;;;;;;;;;;;;;;;;;4920354;28;19954;-66
2022/12/30 06:31:10;;;;;;;;;;;;;;;;;;4904703;29;20357;-66
2022/12/30 06:33:36;;;;;;;;;;;;;;;;;;4906168;29;19915;-66
2022/12/30 06:36:02;;;;;;;;;;;;;;;;;;4902777;29;20374;-66
2022/12/30 06:38:28;;;;;;;;;;;;;;;;;;4906630;28;20444;-68
2022/12/30 06:40:54;;;;;;;;;;;;;;;;;;4902571;29;19929;-66
2022/12/30 06:43:20;;;;;;;;;;;;;;;;;;4907835;29;19921;-66
2022/12/30 06:45:46;;;;;;;;;;;;;;;;;;4906638;29;19915;-66
2022/12/30 06:48:12;;;;;;;;;;;;;;;;;;4905080;28;20484;-65
2022/12/30 06:50:37;;;;;;;;;;;;;;;;;;4906118;29;20406;-66
2022/12/30 06:53:03;;;;;;;;;;;;;;;;;;4917199;28;19915;-66
2022/12/30 06:55:29;;;;;;;;;;;;;;;;;;4922222;28;19922;-65
2022/12/30 06:57:55;;;;;;;;;;;;;;;;;;4908159;29;20273;-65
2022/12/30 07:00:21;;;;;;;;;;;;;;;;;;4912021;29;20093;-65
2022/12/30 07:02:48;;;;;;;;;;;;;;;;;;4908786;29;20266;-65
2022/12/30 07:05:14;;;;;;;;;;;;;;;;;;4911403;29;20451;-65
2022/12/30 07:07:40;;;;;;;;;;;;;;;;;;4910704;29;20329;-65
2022/12/30 07:10:06;;;;;;;;;;;;;;;;;;4907652;29;19914;-67
2022/12/30 07:12:32;;;;;;;;;;;;;;;;;;4925760;28;20302;-66
2022/12/30 07:14:58;;;;;;;;;;;;;;;;;;4908227;29;20461;-66
2022/12/30 07:17:24;;;;;;;;;;;;;;;;;;4907212;29;20025;-67
2022/12/30 07:19:50;;;;;;;;;;;;;;;;;;4923590;28;19922;-67
2022/12/30 07:22:16;;;;;;;;;;;;;;;;;;4907929;29;19918;-67
2022/12/30 07:24:42;;;;;;;;;;;;;;;;;;4910017;29;20372;-65
2022/12/30 07:27:08;;;;;;;;;;;;;;;;;;4905875;29;20026;-65
2022/12/30 07:29:34;;;;;;;;;;;;;;;;;;4909060;29;19927;-65
2022/12/30 07:32:00;;;;;;;;;;;;;;;;;;4905948;29;19915;-66
2022/12/30 07:34:26;;;;;;;;;;;;;;;;;;4909333;29;20052;-66
2022/12/30 07:36:52;;;;;;;;;;;;;;;;;;4904148;29;19915;-67
2022/12/30 07:39:18;;;;;;;;;;;;;;;;;;4901194;29;19922;-66
2022/12/30 07:41:44;;;;;;;;;;;;;;;;;;4921762;28;20449;-66
2022/12/30 07:44:10;;;;;;;;;;;;;;;;;;4913656;28;19914;-66
2022/12/30 07:46:36;;;;;;;;;;;;;;;;;;4908110;29;19950;-66
2022/12/30 07:49:02;;;;;;;;;;;;;;;;;;4909205;29;20183;-66
2022/12/30 07:51:28;;;;;;;;;;;;;;;;;;4909303;29;20353;-66
2022/12/30 07:53:54;;;;;;;;;;;;;;;;;;4906005;29;19960;-65
2022/12/30 07:56:20;;;;;;;;;;;;;;;;;;4908539;29;19910;-66
2022/12/30 07:58:46;;;;;;;;;;;;;;;;;;4908171;29;20277;-66
2022/12/30 08:01:12;;;;;;;;;;;;;;;;;;4922350;28;19918;-66
2022/12/30 08:03:38;;;;;;;;;;;;;;;;;;4911577;28;19922;-66
2022/12/30 08:06:04;;;;;;;;;;;;;;;;;;4905977;29;21647;-65
2022/12/30 08:08:30;;;;;;;;;;;;;;;;;;4911024;29;20223;-65
2022/12/30 08:10:56;;;;;;;;;;;;;;;;;;4907753;29;19974;-65
2022/12/30 08:13:22;;;;;;;;;;;;;;;;;;4908383;29;19969;-65
2022/12/30 08:15:48;;;;;;;;;;;;;;;;;;4908113;29;20488;-66
2022/12/30 08:18:14;;;;;;;;;;;;;;;;;;4908944;29;19918;-65
2022/12/30 08:20:40;;;;;;;;;;;;;;;;;;4924548;28;20376;-65
2022/12/30 08:23:06;;;;;;;;;;;;;;;;;;4920969;28;19918;-66
2022/12/30 08:25:32;;;;;;;;;;;;;;;;;;4924015;28;20002;-66
2022/12/30 08:27:58;;;;;;;;;;;;;;;;;;4906466;29;20382;-66
2022/12/30 08:30:24;;;;;;;;;;;;;;;;;;4911243;29;20543;-66
2022/12/30 08:32:50;;;;;;;;;;;;;;;;;;4904648;29;19914;-66
2022/12/30 08:35:16;;;;;;;;;;;;;;;;;;4907871;29;19961;-66
2022/12/30 08:37:42;;;;;;;;;;;;;;;;;;4910703;29;19915;-66
2022/12/30 08:40:08;;;;;;;;;;;;;;;;;;4907461;29;20669;-66
2022/12/30 08:42:34;;;;;;;;;;;;;;;;;;4923442;28;19945;-67
2022/12/30 08:45:00;;;;;;;;;;;;;;;;;;4906422;29;20021;-66
2022/12/30 08:47:26;;;;;;;;;;;;;;;;;;4909472;29;19950;-66
2022/12/30 08:49:52;;;;;;;;;;;;;;;;;;4906679;29;20426;-66
2022/12/30 08:52:18;;;;;;;;;;;;;;;;;;4910229;29;20421;-66
2022/12/30 08:54:44;;;;;;;;;;;;;;;;;;4907383;29;19921;-65
2022/12/30 08:57:11;;;;;;;;;;;;;;;;;;4906295;29;19915;-66
2022/12/30 08:59:37;;;;;;;;;;;;;;;;;;4907752;29;19919;-66
2022/12/30 09:02:03;;;;;;;;;;;;;;;;;;4903492;29;20445;-66
2022/12/30 09:04:29;;;;;;;;;;;;;;;;;;4907468;29;20007;-66
2022/12/30 09:06:55;;;;;;;;;;;;;;;;;;4919312;28;19918;-68
2022/12/30 09:09:21;;;;;;;;;;;;;;;;;;4907051;29;20358;-65
2022/12/30 09:11:47;;;;;;;;;;;;;;;;;;4908582;29;19960;-67
2022/12/30 09:14:14;;;;;;;;;;;;;;;;;;4907325;29;20377;-65
2022/12/30 09:16:40;;;;;;;;;;;;;;;;;;4907178;29;19915;-67
2022/12/30 09:19:06;;;;;;;;;;;;;;;;;;4906084;29;19918;-67
2022/12/30 09:21:32;;;;;;;;;;;;;;;;;;4908150;29;19918;-67
2022/12/30 09:23:58;;;;;;;;;;;;;;;;;;4904591;29;19922;-68
2022/12/30 09:26:24;;;;;;;;;;;;;;;;;;4908858;29;19921;-67
2022/12/30 09:28:50;;;;;;;;;;;;;;;;;;4904254;29;19922;-67
2022/12/30 09:31:16;;;;;;;;;;;;;;;;;;4907874;29;20357;-67
2022/12/30 09:33:42;;;;;;;;;;;;;;;;;;4923803;28;19918;-67
2022/12/30 09:36:08;;;;;;;;;;;;;;;;;;4903134;29;21537;-67
2022/12/30 09:38:34;;;;;;;;;;;;;;;;;;4921433;28;19930;-67
2022/12/30 09:41:00;;;;;;;;;;;;;;;;;;4918998;28;20013;-68
2022/12/30 09:43:26;;;;;;;;;;;;;;;;;;4905599;29;19922;-68
2022/12/30 09:45:52;;;;;;;;;;;;;;;;;;4904234;29;19919;-65
2022/12/30 09:48:18;;;;;;;;;;;;;;;;;;4923622;28;19915;-65
2022/12/30 09:50:44;;;;;;;;;;;;;;;;;;4907475;29;20246;-68
2022/12/30 09:53:10;;;;;;;;;;;;;;;;;;4903393;29;20021;-68
2022/12/30 09:55:36;;;;;;;;;;;;;;;;;;4907431;29;19964;-68
2022/12/30 09:58:02;;;;;;;;;;;;;;;;;;4905914;29;19923;-68
2022/12/30 10:00:28;;;;;;;;;;;;;;;;;;4907366;29;20821;-68
2022/12/30 10:02:54;;;;;;;;;;;;;;;;;;4904717;29;20069;-68
2022/12/30 10:05:20;;;;;;;;;;;;;;;;;;4907689;29;19922;-68
2022/12/30 10:07:46;;;;;;;;;;;;;;;;;;4923072;28;19946;-65
2022/12/30 10:10:12;;;;;;;;;;;;;;;;;;4905946;29;20452;-67
2022/12/30 10:12:38;;;;;;;;;;;;;;;;;;4906932;29;19927;-67
2022/12/30 10:15:04;;;;;;;;;;;;;;;;;;4918679;28;19922;-65
2022/12/30 10:17:30;;;;;;;;;;;;;;;;;;4908466;28;19922;-66
2022/12/30 10:19:56;;;;;;;;;;;;;;;;;;4904292;29;20371;-67
2022/12/30 10:22:22;;;;;;;;;;;;;;;;;;4908543;29;20018;-64
2022/12/30 10:24:48;;;;;;;;;;;;;;;;;;4908380;29;19915;-68
2022/12/30 10:27:13;;;;;;;;;;;;;;;;;;4921478;28;19923;-67
2022/12/30 10:29:39;;;;;;;;;;;;;;;;;;4910735;29;20377;-66
2022/12/30 10:32:05;;;;;;;;;;;;;;;;;;4926052;28;19914;-66
2022/12/30 10:34:33;;;;;;;;;;;;;;;;;;4911966;29;20254;-67
2022/12/30 10:37:00;;;;;;;;;;;;;;;;;;4909180;29;19922;-67
2022/12/30 10:39:25;;;;;;;;;;;;;;;;;;4913218;29;19921;-66
2022/12/30 10:41:51;;;;;;;;;;;;;;;;;;4908392;29;20269;-66
2022/12/30 10:44:17;;;;;;;;;;;;;;;;;;4911718;28;19973;-67
2022/12/30 10:46:43;;;;;;;;;;;;;;;;;;4911059;29;20467;-67
2022/12/30 10:49:09;;;;;;;;;;;;;;;;;;4907584;29;20709;-62
2022/12/30 10:51:35;;;;;;;;;;;;;;;;;;4910114;29;19918;-64
2022/12/30 10:54:02;;;;;;;;;;;;;;;;;;4909924;29;19914;-61
2022/12/30 10:56:27;;;;;;;;;;;;;;;;;;4926907;28;19926;-65
2022/12/30 10:58:53;;;;;;;;;;;;;;;;;;4909398;29;19997;-63
2022/12/30 11:01:19;;;;;;;;;;;;;;;;;;4910523;29;20057;-66
2022/12/30 11:03:46;;;;;;;;;;;;;;;;;;4924065;28;19918;-66
2022/12/30 11:06:12;;;;;;;;;;;;;;;;;;4922277;28;19914;-66
2022/12/30 11:08:38;;;;;;;;;;;;;;;;;;4910053;29;20004;-64
2022/12/30 11:11:04;;;;;;;;;;;;;;;;;;4906744;29;20270;-68
2022/12/30 11:16:14;;;;;;;;;;;;;;;;;;4909999;29;20384;-69
2022/12/30 11:18:40;;;;;;;;;;;;;;;;;;4912174;29;19915;-66
2022/12/30 11:21:06;;;;;;;;;;;;;;;;;;4907048;29;20274;-66
2022/12/30 11:23:32;;;;;;;;;;;;;;;;;;4911219;29;19921;-66
2022/12/30 11:25:58;;;;;;;;;;;;;;;;;;4906037;29;20267;-67
2022/12/30 11:28:24;;;;;;;;;;;;;;;;;;4925425;28;20344;-68
2022/12/30 11:30:50;;;;;;;;;;;;;;;;;;4906727;29;19950;-63
2022/12/30 11:33:16;;;;;;;;;;;;;;;;;;4911117;29;19970;-68
2022/12/30 11:35:42;;;;;;;;;;;;;;;;;;4909656;28;19969;-70
2022/12/30 11:38:08;;;;;;;;;;;;;;;;;;4907673;29;20548;-63
2022/12/30 11:40:34;;;;;;;;;;;;;;;;;;4907820;29;19957;-66
2022/12/30 11:43:00;;;;;;;;;;;;;;;;;;4906793;29;20480;-66
2022/12/30 11:45:26;;;;;;;;;;;;;;;;;;4908723;29;19921;-67
2022/12/30 11:47:52;;;;;;;;;;;;;;;;;;4921189;28;20439;-68
2022/12/30 11:50:18;;;;;;;;;;;;;;;;;;4910896;29;20306;-66
2022/12/30 11:52:44;;;;;;;;;;;;;;;;;;4925106;28;19984;-68
2022/12/30 11:55:10;;;;;;;;;;;;;;;;;;4906181;28;19922;-67
2022/12/30 11:57:36;;;;;;;;;;;;;;;;;;4910190;28;19921;-67
2022/12/30 12:00:02;;;;;;;;;;;;;;;;;;4906446;29;19923;-66
2022/12/30 12:02:28;;;;;;;;;;;;;;;;;;4910626;29;19926;-68
2022/12/30 12:04:54;;;;;;;;;;;;;;;;;;4907331;28;20395;-67
2022/12/30 12:07:20;;;;;;;;;;;;;;;;;;4908005;29;20254;-67
2022/12/30 12:09:46;;;;;;;;;;;;;;;;;;4921076;28;19914;-67
2022/12/30 12:12:12;;;;;;;;;;;;;;;;;;4921529;28;19915;-66
2022/12/30 12:14:38;;;;;;;;;;;;;;;;;;4907740;29;20479;-63
2022/12/30 12:17:04;;;;;;;;;;;;;;;;;;4905285;29;19915;-68
2022/12/30 12:19:30;;;;;;;;;;;;;;;;;;4903953;29;20112;-66
2022/12/30 12:21:56;;;;;;;;;;;;;;;;;;4901275;28;19925;-67
2022/12/30 12:24:22;;;;;;;;;;;;;;;;;;4906395;29;19918;-64
2022/12/30 12:26:48;;;;;;;;;;;;;;;;;;4906909;29;19922;-65
2022/12/30 12:29:14;;;;;;;;;;;;;;;;;;4906108;29;19982;-65
2022/12/30 12:31:40;;;;;;;;;;;;;;;;;;4905439;29;20433;-65
2022/12/30 12:34:06;;;;;;;;;;;;;;;;;;4901918;29;20431;-64
2022/12/30 12:36:33;;;;;;;;;;;;;;;;;;4904204;29;20522;-64
2022/12/30 12:38:59;;;;;;;;;;;;;;;;;;4900080;29;19925;-64
2022/12/30 12:42:08;;;;;;;;;;;;;;;;;;5041211;27;19924;-62
2022/12/30 12:44:34;;;;;;;;;;;;;;;;;;5036467;28;19923;-63
2022/12/30 12:47:00;;;;;;;;;;;;;;;;;;5035154;28;20077;-62
2022/12/30 12:49:26;;;;;;;;;;;;;;;;;;5050672;28;19921;-64
2022/12/30 12:51:52;;;;;;;;;;;;;;;;;;5045275;28;19962;-65
2022/12/30 12:54:18;;;;;;;;;;;;;;;;;;5037364;28;20547;-65
2022/12/30 12:56:44;;;;;;;;;;;;;;;;;;5035428;28;19925;-64
2022/12/30 12:59:10;;;;;;;;;;;;;;;;;;5034326;28;19975;-64
2022/12/30 13:01:36;;;;;;;;;;;;;;;;;;5034431;28;19924;-64
2022/12/30 13:04:02;;;;;;;;;;;;;;;;;;5065713;28;20534;-64
2022/12/30 13:06:28;;;;;;;;;;;;;;;;;;5033641;28;20039;-66
2022/12/30 13:08:54;;;;;;;;;;;;;;;;;;5032691;28;20093;-62
2022/12/30 13:11:20;;;;;;;;;;;;;;;;;;5038295;28;19928;-61
2022/12/30 13:13:46;;;;;;;;;;;;;;;;;;5035109;28;19921;-61
2022/12/30 13:16:12;;;;;;;;;;;;;;;;;;5030359;28;19964;-65
2022/12/30 13:18:38;;;;;;;;;;;;;;;;;;5035042;28;20480;-65
2022/12/30 13:21:04;;;;;;;;;;;;;;;;;;5030561;28;19927;-63
2022/12/30 13:23:30;;;;;;;;;;;;;;;;;;5035721;28;19927;-64
2022/12/30 13:25:56;;;;;;;;;;;;;;;;;;5035081;28;20454;-62
2022/12/30 13:28:23;;;;;;;;;;;;;;;;;;5036730;28;19979;-66
2022/12/30 13:30:49;;;;;;;;;;;;;;;;;;5033262;28;20709;-65
2022/12/30 13:33:15;;;;;;;;;;;;;;;;;;5035119;28;20765;-64
2022/12/30 13:35:41;;;;;;;;;;;;;;;;;;5033270;28;20756;-65
2022/12/30 13:38:07;;;;;;;;;;;;;;;;;;5033776;28;20649;-62
2022/12/30 13:40:33;;;;;;;;;;;;;;;;;;5035049;28;19932;-62
2022/12/30 13:42:59;;;;;;;;;;;;;;;;;;5032298;28;19963;-62
2022/12/30 13:45:25;;;;;;;;;;;;;;;;;;5036253;28;19924;-62
2022/12/30 13:47:51;;;;;;;;;;;;;;;;;;5032368;28;20426;-65
2022/12/30 13:50:17;;;;;;;;;;;;;;;;;;5031580;28;19916;-65
2022/12/30 13:52:43;;;;;;;;;;;;;;;;;;5028022;28;19969;-63
2022/12/30 13:55:09;;;;;;;;;;;;;;;;;;5017551;28;20365;-64
2022/12/30 13:57:35;;;;;;;;;;;;;;;;;;5024529;28;19917;-66
2022/12/30 14:00:01;;;;;;;;;;;;;;;;;;5017668;28;19921;-65
2022/12/30 14:02:27;;;;;;;;;;;;;;;;;;5019525;28;19917;-66
2022/12/30 14:04:53;;;;;;;;;;;;;;;;;;5019034;28;19929;-66
2022/12/30 14:07:19;;;;;;;;;;;;;;;;;;5021411;28;20357;-69
2022/12/30 14:09:45;;;;;;;;;;;;;;;;;;5022066;28;19913;-69
2022/12/30 14:12:13;;;;;;;;;;;;;;;;;;5017073;28;20579;-70
2022/12/30 14:14:39;;;;;;;;;;;;;;;;;;5021127;28;19998;-70
2022/12/30 14:17:05;;;;;;;;;;;;;;;;;;5015890;28;19927;-69
2022/12/30 14:19:31;;;;;;;;;;;;;;;;;;5021530;28;19919;-70
2022/12/30 14:21:57;;;;;;;;;;;;;;;;;;5021939;28;19921;-69
2022/12/30 14:24:23;;;;;;;;;;;;;;;;;;5020154;28;20278;-68
2022/12/30 14:26:49;;;;;;;;;;;;;;;;;;5019065;28;20448;-68
2022/12/30 14:29:15;;;;;;;;;;;;;;;;;;5022094;28;19976;-70
2022/12/30 14:31:41;;;;;;;;;;;;;;;;;;5020731;28;20113;-69
2022/12/30 14:34:07;;;;;;;;;;;;;;;;;;5017791;28;20254;-69
2022/12/30 14:36:33;;;;;;;;;;;;;;;;;;5019687;28;19923;-67
2022/12/30 14:38:59;;;;;;;;;;;;;;;;;;5017718;28;19921;-69
2022/12/30 14:41:25;;;;;;;;;;;;;;;;;;5023815;28;19936;-69
2022/12/30 14:43:51;;;;;;;;;;;;;;;;;;5016076;28;20318;-69
2022/12/30 14:46:17;;;;;;;;;;;;;;;;;;5021301;28;19952;-69
2022/12/30 14:48:43;;;;;;;;;;;;;;;;;;5021531;28;19943;-69
2022/12/30 14:51:09;;;;;;;;;;;;;;;;;;5019904;28;21956;-68
2022/12/30 14:53:35;;;;;;;;;;;;;;;;;;5017983;28;19921;-67
2022/12/30 14:56:01;;;;;;;;;;;;;;;;;;5017632;28;19933;-69
2022/12/30 14:58:27;;;;;;;;;;;;;;;;;;5020398;28;19917;-69
2022/12/30 15:00:53;;;;;;;;;;;;;;;;;;5018042;28;19924;-68
2022/12/30 15:03:19;;;;;;;;;;;;;;;;;;5019954;28;20393;-69
2022/12/30 15:05:44;;;;;;;;;;;;;;;;;;5021109;28;20072;-68
2022/12/30 15:08:10;;;;;;;;;;;;;;;;;;5017186;28;19997;-69
2022/12/30 15:10:36;;;;;;;;;;;;;;;;;;5021266;28;20576;-69
2022/12/30 15:13:02;;;;;;;;;;;;;;;;;;5016536;28;19940;-67
2022/12/30 15:15:28;;;;;;;;;;;;;;;;;;5021634;28;20039;-68
2022/12/30 15:17:54;;;;;;;;;;;;;;;;;;5017489;28;19921;-70
2022/12/30 15:20:20;;;;;;;;;;;;;;;;;;5013703;28;19925;-70
2022/12/30 15:22:46;;;;;;;;;;;;;;;;;;5020576;28;20402;-69
2022/12/30 15:25:12;;;;;;;;;;;;;;;;;;5012821;28;20686;-69
2022/12/30 15:27:38;;;;;;;;;;;;;;;;;;5018479;28;20221;-69
2022/12/30 15:30:04;;;;;;;;;;;;;;;;;;5015744;28;20362;-68
2022/12/30 15:32:30;;;;;;;;;;;;;;;;;;5034827;28;19928;-70
2022/12/30 15:34:56;;;;;;;;;;;;;;;;;;5016457;28;20236;-70
2022/12/30 15:37:22;;;;;;;;;;;;;;;;;;5021807;28;20030;-70
2022/12/30 15:39:48;;;;;;;;;;;;;;;;;;5019668;28;19920;-67
2022/12/30 15:42:14;;;;;;;;;;;;;;;;;;5016141;28;20022;-69
2022/12/30 15:44:40;;;;;;;;;;;;;;;;;;5020635;28;20450;-70
2022/12/30 15:47:06;;;;;;;;;;;;;;;;;;5017500;28;20043;-70
2022/12/30 15:49:32;;;;;;;;;;;;;;;;;;5017208;28;21224;-70
2022/12/30 15:51:58;;;;;;;;;;;;;;;;;;5014422;28;19921;-70
2022/12/30 15:54:26;;;;;;;;;;;;;;;;;;5019446;28;19920;-70
2022/12/30 15:56:52;;;;;;;;;;;;;;;;;;5015911;28;19974;-70
2022/12/30 15:59:18;;;;;;;;;;;;;;;;;;5020107;28;20031;-70
2022/12/30 16:01:44;;;;;;;;;;;;;;;;;;5017463;28;20346;-70
2022/12/30 16:04:10;;;;;;;;;;;;;;;;;;5016008;28;19923;-70
2022/12/30 16:06:36;;;;;;;;;;;;;;;;;;5018394;28;19928;-70
2022/12/30 16:09:02;;;;;;;;;;;;;;;;;;5015389;28;19964;-68
2022/12/30 16:11:28;;;;;;;;;;;;;;;;;;5018366;28;19979;-67
2022/12/30 16:13:54;;;;;;;;;;;;;;;;;;5015456;28;19920;-68
2022/12/30 16:16:20;;;;;;;;;;;;;;;;;;5019362;28;19985;-68
2022/12/30 16:18:46;;;;;;;;;;;;;;;;;;5020005;28;19921;-68
2022/12/30 16:21:12;;;;;;;;;;;;;;;;;;5015474;28;19927;-67
2022/12/30 16:23:38;;;;;;;;;;;;;;;;;;5017750;28;19928;-69
2022/12/30 16:26:04;;;;;;;;;;;;;;;;;;5014580;28;19912;-68
2022/12/30 16:28:30;;;;;;;;;;;;;;;;;;5017904;28;19956;-69
2022/12/30 16:30:56;;;;;;;;;;;;;;;;;;5015786;28;20294;-70
2022/12/30 16:33:22;;;;;;;;;;;;;;;;;;5017004;28;19914;-68
2022/12/30 16:35:48;;;;;;;;;;;;;;;;;;5017856;28;19921;-68
2022/12/30 16:38:14;;;;;;;;;;;;;;;;;;5015806;28;19917;-67
2022/12/30 16:40:40;;;;;;;;;;;;;;;;;;5015768;28;19968;-68
2022/12/30 16:43:06;;;;;;;;;;;;;;;;;;5016871;28;19925;-67
2022/12/30 16:45:32;;;;;;;;;;;;;;;;;;5017047;28;19931;-67
2022/12/30 16:47:58;;;;;;;;;;;;;;;;;;5016247;28;19917;-67
2022/12/30 16:50:24;;;;;;;;;;;;;;;;;;5018248;28;19927;-66
2022/12/30 16:52:50;;;;;;;;;;;;;;;;;;5014879;28;19924;-66
2022/12/30 16:55:16;;;;;;;;;;;;;;;;;;5018721;28;20318;-66
2022/12/30 16:57:42;;;;;;;;;;;;;;;;;;5017232;28;19921;-66
2022/12/30 17:00:08;;;;;;;;;;;;;;;;;;5016902;28;20299;-66
2022/12/30 17:02:34;;;;;;;;;;;;;;;;;;5018935;28;20003;-67
2022/12/30 17:05:00;;;;;;;;;;;;;;;;;;5013882;28;19933;-67
2022/12/30 17:07:26;;;;;;;;;;;;;;;;;;5018865;28;20326;-67
2022/12/30 17:12:36;;;;;;;;;;;;;;;;;;5018421;28;20503;-67
2022/12/30 17:15:02;;;;;;;;;;;;;;;;;;5016556;28;19944;-67
2022/12/30 17:17:28;;;;;;;;;;;;;;;;;;5018216;28;19950;-66
2022/12/30 17:19:54;;;;;;;;;;;;;;;;;;5013850;28;20049;-66
2022/12/30 17:22:20;;;;;;;;;;;;;;;;;;5019345;28;19921;-67
2022/12/30 17:24:46;;;;;;;;;;;;;;;;;;5018640;28;19917;-67
2022/12/30 17:27:12;;;;;;;;;;;;;;;;;;5017621;28;20113;-67
2022/12/30 17:29:38;;;;;;;;;;;;;;;;;;5022074;28;20583;-67
2022/12/30 17:32:04;;;;;;;;;;;;;;;;;;5017957;28;20345;-67
2022/12/30 17:34:30;;;;;;;;;;;;;;;;;;5017920;28;20355;-68
2022/12/30 17:36:56;;;;;;;;;;;;;;;;;;5016689;28;20426;-67